sensor_id;sensor_type;location;lat;lon;timestamp;temperature;humidity
13796;SHT30;40911;51.552;9.874;2023-12-29T00:00:15;8.10;85.73
13796;SHT30;40911;51.552;9.874;2023-12-29T00:02:36;8.10;85.67
13796;SHT30;40911;51.552;9.874;2023-12-29T00:04:58;8.03;85.98
13796;SHT30;40911;51.552;9.874;2023-12-29T00:07:19;8.07;85.43
13796;SHT30;40911;51.552;9.874;2023-12-29T00:09:41;7.97;85.86
13796;SHT30;40911;51.552;9.874;2023-12-29T00:12:03;8.02;85.60
13796;SHT30;40911;51.552;9.874;2023-12-29T00:14:26;7.96;86.11
13796;SHT30;40911;51.552;9.874;2023-12-29T00:16:48;8.16;85.17
13796;SHT30;40911;51.552;9.874;2023-12-29T00:19:09;7.96;85.73
13796;SHT30;40911;51.552;9.874;2023-12-29T00:21:31;8.07;85.49
13796;SHT30;40911;51.552;9.874;2023-12-29T00:23:52;8.07;85.62
13796;SHT30;40911;51.552;9.874;2023-12-29T00:26:16;8.16;85.19
13796;SHT30;40911;51.552;9.874;2023-12-29T00:28:37;8.12;85.35
13796;SHT30;40911;51.552;9.874;2023-12-29T00:31:02;8.07;85.61
13796;SHT30;40911;51.552;9.874;2023-12-29T00:33:23;8.07;85.35
13796;SHT30;40911;51.552;9.874;2023-12-29T00:35:45;7.90;86.42
13796;SHT30;40911;51.552;9.874;2023-12-29T00:38:07;8.18;85.32
13796;SHT30;40911;51.552;9.874;2023-12-29T00:40:28;8.17;85.50
13796;SHT30;40911;51.552;9.874;2023-12-29T00:42:50;8.13;85.50
13796;SHT30;40911;51.552;9.874;2023-12-29T00:45:12;8.13;85.78
13796;SHT30;40911;51.552;9.874;2023-12-29T00:47:34;8.07;85.88
13796;SHT30;40911;51.552;9.874;2023-12-29T00:49:56;8.28;85.45
13796;SHT30;40911;51.552;9.874;2023-12-29T00:52:18;8.13;85.72
13796;SHT30;40911;51.552;9.874;2023-12-29T00:54:40;8.18;85.79
13796;SHT30;40911;51.552;9.874;2023-12-29T00:57:02;8.31;85.39
13796;SHT30;40911;51.552;9.874;2023-12-29T00:59:23;8.13;85.90
13796;SHT30;40911;51.552;9.874;2023-12-29T01:01:45;8.20;85.74
13796;SHT30;40911;51.552;9.874;2023-12-29T01:04:08;8.37;85.35
13796;SHT30;40911;51.552;9.874;2023-12-29T01:06:29;8.30;85.78
13796;SHT30;40911;51.552;9.874;2023-12-29T01:08:50;8.31;85.59
13796;SHT30;40911;51.552;9.874;2023-12-29T01:11:11;8.33;85.66
13796;SHT30;40911;51.552;9.874;2023-12-29T01:13:34;8.37;85.43
13796;SHT30;40911;51.552;9.874;2023-12-29T01:15:55;8.28;85.87
13796;SHT30;40911;51.552;9.874;2023-12-29T01:18:17;8.38;85.69
13796;SHT30;40911;51.552;9.874;2023-12-29T01:20:40;8.38;85.93
13796;SHT30;40911;51.552;9.874;2023-12-29T01:23:01;8.35;85.98
13796;SHT30;40911;51.552;9.874;2023-12-29T01:25:23;8.37;86.33
13796;SHT30;40911;51.552;9.874;2023-12-29T01:27:45;8.33;86.33
13796;SHT30;40911;51.552;9.874;2023-12-29T01:30:08;8.35;86.35
13796;SHT30;40911;51.552;9.874;2023-12-29T01:32:29;8.24;86.80
13796;SHT30;40911;51.552;9.874;2023-12-29T01:34:52;8.31;86.81
13796;SHT30;40911;51.552;9.874;2023-12-29T01:37:15;8.31;86.59
13796;SHT30;40911;51.552;9.874;2023-12-29T01:39:37;8.24;87.28
13796;SHT30;40911;51.552;9.874;2023-12-29T01:42:00;8.27;86.97
13796;SHT30;40911;51.552;9.874;2023-12-29T01:44:22;8.31;86.92
13796;SHT30;40911;51.552;9.874;2023-12-29T01:46:44;8.27;87.20
13796;SHT30;40911;51.552;9.874;2023-12-29T01:49:06;8.42;86.63
13796;SHT30;40911;51.552;9.874;2023-12-29T01:51:28;8.30;86.72
13796;SHT30;40911;51.552;9.874;2023-12-29T01:53:52;8.45;86.28
13796;SHT30;40911;51.552;9.874;2023-12-29T01:56:14;8.41;86.65
13796;SHT30;40911;51.552;9.874;2023-12-29T01:58:35;8.34;86.54
13796;SHT30;40911;51.552;9.874;2023-12-29T02:00:57;8.54;86.16
13796;SHT30;40911;51.552;9.874;2023-12-29T02:03:19;8.37;86.48
13796;SHT30;40911;51.552;9.874;2023-12-29T02:05:41;8.41;86.47
13796;SHT30;40911;51.552;9.874;2023-12-29T02:08:04;8.44;86.19
13796;SHT30;40911;51.552;9.874;2023-12-29T02:10:27;8.40;86.59
13796;SHT30;40911;51.552;9.874;2023-12-29T02:12:50;8.49;86.24
13796;SHT30;40911;51.552;9.874;2023-12-29T02:15:14;8.54;86.22
13796;SHT30;40911;51.552;9.874;2023-12-29T02:17:40;8.65;85.84
13796;SHT30;40911;51.552;9.874;2023-12-29T02:20:03;8.52;86.21
13796;SHT30;40911;51.552;9.874;2023-12-29T02:22:25;8.55;86.30
13796;SHT30;40911;51.552;9.874;2023-12-29T02:24:48;8.61;86.13
13796;SHT30;40911;51.552;9.874;2023-12-29T02:27:21;8.56;86.05
13796;SHT30;40911;51.552;9.874;2023-12-29T02:29:48;8.56;85.93
13796;SHT30;40911;51.552;9.874;2023-12-29T02:32:16;8.55;85.92
13796;SHT30;40911;51.552;9.874;2023-12-29T02:34:40;8.45;86.34
13796;SHT30;40911;51.552;9.874;2023-12-29T02:37:03;8.61;85.71
13796;SHT30;40911;51.552;9.874;2023-12-29T02:39:25;8.54;85.72
13796;SHT30;40911;51.552;9.874;2023-12-29T02:41:47;8.62;85.66
13796;SHT30;40911;51.552;9.874;2023-12-29T02:44:09;8.51;85.72
13796;SHT30;40911;51.552;9.874;2023-12-29T02:46:31;8.61;85.46
13796;SHT30;40911;51.552;9.874;2023-12-29T02:48:52;8.42;85.86
13796;SHT30;40911;51.552;9.874;2023-12-29T02:51:14;8.65;85.13
13796;SHT30;40911;51.552;9.874;2023-12-29T02:53:35;8.51;85.46
13796;SHT30;40911;51.552;9.874;2023-12-29T02:55:57;8.58;85.31
13796;SHT30;40911;51.552;9.874;2023-12-29T02:58:20;8.52;85.47
13796;SHT30;40911;51.552;9.874;2023-12-29T03:00:41;8.62;85.16
13796;SHT30;40911;51.552;9.874;2023-12-29T03:03:04;8.73;84.71
13796;SHT30;40911;51.552;9.874;2023-12-29T03:05:25;8.76;84.32
13796;SHT30;40911;51.552;9.874;2023-12-29T03:07:47;8.69;84.64
13796;SHT30;40911;51.552;9.874;2023-12-29T03:10:09;8.54;85.29
13796;SHT30;40911;51.552;9.874;2023-12-29T03:12:30;8.52;85.13
13796;SHT30;40911;51.552;9.874;2023-12-29T03:14:53;8.49;85.26
13796;SHT30;40911;51.552;9.874;2023-12-29T03:17:15;8.54;84.92
13796;SHT30;40911;51.552;9.874;2023-12-29T03:19:37;8.52;85.00
13796;SHT30;40911;51.552;9.874;2023-12-29T03:21:58;8.59;84.83
13796;SHT30;40911;51.552;9.874;2023-12-29T03:24:20;8.42;85.24
13796;SHT30;40911;51.552;9.874;2023-12-29T03:26:41;8.49;84.84
13796;SHT30;40911;51.552;9.874;2023-12-29T03:29:02;8.58;84.84
13796;SHT30;40911;51.552;9.874;2023-12-29T03:31:25;8.49;85.03
13796;SHT30;40911;51.552;9.874;2023-12-29T03:33:46;8.52;84.92
13796;SHT30;40911;51.552;9.874;2023-12-29T03:36:08;8.59;84.68
13796;SHT30;40911;51.552;9.874;2023-12-29T03:38:30;8.54;84.88
13796;SHT30;40911;51.552;9.874;2023-12-29T03:40:53;8.61;84.54
13796;SHT30;40911;51.552;9.874;2023-12-29T03:43:15;8.61;84.85
13796;SHT30;40911;51.552;9.874;2023-12-29T03:45:36;8.66;84.58
13796;SHT30;40911;51.552;9.874;2023-12-29T03:47:59;8.56;84.80
13796;SHT30;40911;51.552;9.874;2023-12-29T03:50:21;8.54;85.03
13796;SHT30;40911;51.552;9.874;2023-12-29T03:52:42;8.63;84.82
13796;SHT30;40911;51.552;9.874;2023-12-29T03:55:05;8.68;84.76
13796;SHT30;40911;51.552;9.874;2023-12-29T03:57:27;8.61;84.82
13796;SHT30;40911;51.552;9.874;2023-12-29T03:59:48;8.63;84.85
13796;SHT30;40911;51.552;9.874;2023-12-29T04:02:10;8.55;85.21
13796;SHT30;40911;51.552;9.874;2023-12-29T04:04:36;8.69;84.81
13796;SHT30;40911;51.552;9.874;2023-12-29T04:06:58;8.79;84.50
13796;SHT30;40911;51.552;9.874;2023-12-29T04:09:19;8.82;84.41
13796;SHT30;40911;51.552;9.874;2023-12-29T04:11:41;8.68;85.09
13796;SHT30;40911;51.552;9.874;2023-12-29T04:14:03;8.75;85.36
13796;SHT30;40911;51.552;9.874;2023-12-29T04:16:24;8.59;86.54
13796;SHT30;40911;51.552;9.874;2023-12-29T04:18:46;8.52;86.83
13796;SHT30;40911;51.552;9.874;2023-12-29T04:21:13;8.54;86.83
13796;SHT30;40911;51.552;9.874;2023-12-29T04:23:35;8.48;87.30
13796;SHT30;40911;51.552;9.874;2023-12-29T04:25:56;8.77;85.74
13796;SHT30;40911;51.552;9.874;2023-12-29T04:28:18;8.71;86.08
13796;SHT30;40911;51.552;9.874;2023-12-29T04:30:39;8.59;86.44
13796;SHT30;40911;51.552;9.874;2023-12-29T04:33:01;8.56;86.40
13796;SHT30;40911;51.552;9.874;2023-12-29T04:35:23;8.59;86.19
13796;SHT30;40911;51.552;9.874;2023-12-29T04:37:45;8.46;86.95
13796;SHT30;40911;51.552;9.874;2023-12-29T04:40:08;8.54;86.70
13796;SHT30;40911;51.552;9.874;2023-12-29T04:42:29;8.58;86.35
13796;SHT30;40911;51.552;9.874;2023-12-29T04:44:51;8.61;86.07
13796;SHT30;40911;51.552;9.874;2023-12-29T04:47:12;8.58;86.51
13796;SHT30;40911;51.552;9.874;2023-12-29T04:49:34;8.62;85.97
13796;SHT30;40911;51.552;9.874;2023-12-29T04:51:56;8.56;86.22
13796;SHT30;40911;51.552;9.874;2023-12-29T04:54:18;8.56;86.18
13796;SHT30;40911;51.552;9.874;2023-12-29T04:56:40;8.58;86.14
13796;SHT30;40911;51.552;9.874;2023-12-29T04:59:02;8.52;86.56
13796;SHT30;40911;51.552;9.874;2023-12-29T05:01:23;8.54;86.79
13796;SHT30;40911;51.552;9.874;2023-12-29T05:03:45;8.40;87.96
13796;SHT30;40911;51.552;9.874;2023-12-29T05:06:06;8.30;88.38
13796;SHT30;40911;51.552;9.874;2023-12-29T05:08:28;8.45;87.52
13796;SHT30;40911;51.552;9.874;2023-12-29T05:10:51;8.41;87.96
13796;SHT30;40911;51.552;9.874;2023-12-29T05:13:12;8.52;87.32
13796;SHT30;40911;51.552;9.874;2023-12-29T05:15:34;8.33;88.75
13796;SHT30;40911;51.552;9.874;2023-12-29T05:17:55;8.28;89.09
13796;SHT30;40911;51.552;9.874;2023-12-29T05:20:17;8.37;88.68
13796;SHT30;40911;51.552;9.874;2023-12-29T05:22:39;8.30;88.86
13796;SHT30;40911;51.552;9.874;2023-12-29T05:25:01;8.41;88.11
13796;SHT30;40911;51.552;9.874;2023-12-29T05:27:25;8.49;87.88
13796;SHT30;40911;51.552;9.874;2023-12-29T05:29:46;8.48;87.68
13796;SHT30;40911;51.552;9.874;2023-12-29T05:32:08;8.51;87.72
13796;SHT30;40911;51.552;9.874;2023-12-29T05:34:29;8.45;88.19
13796;SHT30;40911;51.552;9.874;2023-12-29T05:36:51;8.45;88.10
13796;SHT30;40911;51.552;9.874;2023-12-29T05:39:13;8.61;87.29
13796;SHT30;40911;51.552;9.874;2023-12-29T05:41:34;8.41;88.33
13796;SHT30;40911;51.552;9.874;2023-12-29T05:43:57;8.46;88.27
13796;SHT30;40911;51.552;9.874;2023-12-29T05:46:21;8.51;87.69
13796;SHT30;40911;51.552;9.874;2023-12-29T05:48:42;8.59;87.46
13796;SHT30;40911;51.552;9.874;2023-12-29T05:51:07;8.56;87.51
13796;SHT30;40911;51.552;9.874;2023-12-29T05:53:29;8.58;87.26
13796;SHT30;40911;51.552;9.874;2023-12-29T05:55:50;8.62;87.21
13796;SHT30;40911;51.552;9.874;2023-12-29T05:58:12;8.55;87.66
13796;SHT30;40911;51.552;9.874;2023-12-29T06:00:35;8.51;87.46
13796;SHT30;40911;51.552;9.874;2023-12-29T06:02:57;8.55;87.14
13796;SHT30;40911;51.552;9.874;2023-12-29T06:05:19;8.54;87.30
13796;SHT30;40911;51.552;9.874;2023-12-29T06:07:41;8.44;87.46
13796;SHT30;40911;51.552;9.874;2023-12-29T06:10:03;8.24;88.01
13796;SHT30;40911;51.552;9.874;2023-12-29T06:12:25;8.28;87.69
13796;SHT30;40911;51.552;9.874;2023-12-29T06:14:46;8.16;88.05
13796;SHT30;40911;51.552;9.874;2023-12-29T06:17:09;8.34;87.43
13796;SHT30;40911;51.552;9.874;2023-12-29T06:19:31;8.34;87.61
13796;SHT30;40911;51.552;9.874;2023-12-29T06:21:53;8.30;87.68
13796;SHT30;40911;51.552;9.874;2023-12-29T06:24:14;8.42;87.28
13796;SHT30;40911;51.552;9.874;2023-12-29T06:26:36;8.44;87.44
13796;SHT30;40911;51.552;9.874;2023-12-29T06:29:01;8.48;87.01
13796;SHT30;40911;51.552;9.874;2023-12-29T06:31:23;8.41;87.64
13796;SHT30;40911;51.552;9.874;2023-12-29T06:33:46;8.38;88.31
13796;SHT30;40911;51.552;9.874;2023-12-29T06:36:08;8.27;89.26
13796;SHT30;40911;51.552;9.874;2023-12-29T06:38:30;8.27;89.70
13796;SHT30;40911;51.552;9.874;2023-12-29T06:40:53;8.21;89.73
13796;SHT30;40911;51.552;9.874;2023-12-29T06:43:15;8.24;89.45
13796;SHT30;40911;51.552;9.874;2023-12-29T06:45:37;8.28;89.09
13796;SHT30;40911;51.552;9.874;2023-12-29T06:47:58;8.17;89.75
13796;SHT30;40911;51.552;9.874;2023-12-29T06:50:21;8.25;89.02
13796;SHT30;40911;51.552;9.874;2023-12-29T06:52:43;8.20;89.15
13796;SHT30;40911;51.552;9.874;2023-12-29T06:55:05;8.25;89.23
13796;SHT30;40911;51.552;9.874;2023-12-29T06:57:26;8.46;88.02
13796;SHT30;40911;51.552;9.874;2023-12-29T06:59:48;8.25;88.52
13796;SHT30;40911;51.552;9.874;2023-12-29T07:02:10;8.24;88.73
13796;SHT30;40911;51.552;9.874;2023-12-29T07:04:32;8.24;88.61
13796;SHT30;40911;51.552;9.874;2023-12-29T07:06:55;8.44;88.04
13796;SHT30;40911;51.552;9.874;2023-12-29T07:09:17;8.25;88.31
13796;SHT30;40911;51.552;9.874;2023-12-29T07:11:38;8.12;88.96
13796;SHT30;40911;51.552;9.874;2023-12-29T07:14:00;8.25;88.64
13796;SHT30;40911;51.552;9.874;2023-12-29T07:16:21;8.10;88.97
13796;SHT30;40911;51.552;9.874;2023-12-29T07:18:43;8.12;88.94
13796;SHT30;40911;51.552;9.874;2023-12-29T07:21:05;8.16;88.98
13796;SHT30;40911;51.552;9.874;2023-12-29T07:23:27;8.35;88.19
13796;SHT30;40911;51.552;9.874;2023-12-29T07:25:49;8.21;88.56
13796;SHT30;40911;51.552;9.874;2023-12-29T07:28:11;8.40;88.04
13796;SHT30;40911;51.552;9.874;2023-12-29T07:30:32;8.37;88.22
13796;SHT30;40911;51.552;9.874;2023-12-29T07:32:54;8.35;88.46
13796;SHT30;40911;51.552;9.874;2023-12-29T07:35:15;8.21;88.86
13796;SHT30;40911;51.552;9.874;2023-12-29T07:37:39;8.41;88.29
13796;SHT30;40911;51.552;9.874;2023-12-29T07:40:03;8.44;88.13
13796;SHT30;40911;51.552;9.874;2023-12-29T07:42:25;8.42;88.52
13796;SHT30;40911;51.552;9.874;2023-12-29T07:44:46;8.46;88.08
13796;SHT30;40911;51.552;9.874;2023-12-29T07:47:08;8.33;88.63
13796;SHT30;40911;51.552;9.874;2023-12-29T07:49:30;8.27;88.87
13796;SHT30;40911;51.552;9.874;2023-12-29T07:51:52;8.40;88.51
13796;SHT30;40911;51.552;9.874;2023-12-29T07:54:14;8.62;87.70
13796;SHT30;40911;51.552;9.874;2023-12-29T07:56:37;8.71;87.14
13796;SHT30;40911;51.552;9.874;2023-12-29T07:58:58;8.62;87.48
13796;SHT30;40911;51.552;9.874;2023-12-29T08:01:20;8.56;87.92
13796;SHT30;40911;51.552;9.874;2023-12-29T08:03:41;8.41;88.32
13796;SHT30;40911;51.552;9.874;2023-12-29T08:06:03;8.52;88.06
13796;SHT30;40911;51.552;9.874;2023-12-29T08:08:25;8.54;88.12
13796;SHT30;40911;51.552;9.874;2023-12-29T08:10:47;8.61;87.78
13796;SHT30;40911;51.552;9.874;2023-12-29T08:13:09;8.56;87.90
13796;SHT30;40911;51.552;9.874;2023-12-29T08:15:31;8.71;87.46
13796;SHT30;40911;51.552;9.874;2023-12-29T08:17:53;8.61;87.92
13796;SHT30;40911;51.552;9.874;2023-12-29T08:20:14;8.77;87.26
13796;SHT30;40911;51.552;9.874;2023-12-29T08:22:36;8.93;86.76
13796;SHT30;40911;51.552;9.874;2023-12-29T08:24:58;8.72;87.17
13796;SHT30;40911;51.552;9.874;2023-12-29T08:27:23;8.96;86.38
13796;SHT30;40911;51.552;9.874;2023-12-29T08:29:46;8.83;86.78
13796;SHT30;40911;51.552;9.874;2023-12-29T08:32:08;8.88;86.76
13796;SHT30;40911;51.552;9.874;2023-12-29T08:34:29;9.03;86.28
13796;SHT30;40911;51.552;9.874;2023-12-29T08:36:51;9.13;85.97
13796;SHT30;40911;51.552;9.874;2023-12-29T08:39:13;9.17;86.21
13796;SHT30;40911;51.552;9.874;2023-12-29T08:41:35;9.32;85.39
13796;SHT30;40911;51.552;9.874;2023-12-29T08:43:56;9.34;85.51
13796;SHT30;40911;51.552;9.874;2023-12-29T08:46:19;9.41;85.09
13796;SHT30;40911;51.552;9.874;2023-12-29T08:48:41;9.37;85.60
13796;SHT30;40911;51.552;9.874;2023-12-29T08:51:02;9.42;85.58
13796;SHT30;40911;51.552;9.874;2023-12-29T08:53:24;9.37;85.50
13796;SHT30;40911;51.552;9.874;2023-12-29T08:55:46;9.26;85.98
13796;SHT30;40911;51.552;9.874;2023-12-29T08:58:07;9.26;85.94
13796;SHT30;40911;51.552;9.874;2023-12-29T09:00:29;9.28;85.90
13796;SHT30;40911;51.552;9.874;2023-12-29T09:02:52;9.23;86.36
13796;SHT30;40911;51.552;9.874;2023-12-29T09:05:14;9.24;86.36
13796;SHT30;40911;51.552;9.874;2023-12-29T09:07:36;9.17;86.67
13796;SHT30;40911;51.552;9.874;2023-12-29T09:09:57;9.19;86.64
13796;SHT30;40911;51.552;9.874;2023-12-29T09:12:19;9.19;87.05
13796;SHT30;40911;51.552;9.874;2023-12-29T09:14:40;9.17;86.83
13796;SHT30;40911;51.552;9.874;2023-12-29T09:17:02;9.26;86.85
13796;SHT30;40911;51.552;9.874;2023-12-29T09:19:26;9.28;86.97
13796;SHT30;40911;51.552;9.874;2023-12-29T09:21:48;9.23;87.35
13796;SHT30;40911;51.552;9.874;2023-12-29T09:24:09;9.28;87.18
13796;SHT30;40911;51.552;9.874;2023-12-29T09:26:31;9.32;86.98
13796;SHT30;40911;51.552;9.874;2023-12-29T09:28:53;9.40;86.70
13796;SHT30;40911;51.552;9.874;2023-12-29T09:31:15;9.42;86.57
13796;SHT30;40911;51.552;9.874;2023-12-29T09:33:37;9.51;87.00
13796;SHT30;40911;51.552;9.874;2023-12-29T09:36:00;9.72;85.90
13796;SHT30;40911;51.552;9.874;2023-12-29T09:38:21;9.79;85.43
13796;SHT30;40911;51.552;9.874;2023-12-29T09:40:43;9.88;85.94
13796;SHT30;40911;51.552;9.874;2023-12-29T09:43:05;9.85;85.65
13796;SHT30;40911;51.552;9.874;2023-12-29T09:45:27;9.78;85.99
13796;SHT30;40911;51.552;9.874;2023-12-29T09:47:51;9.81;86.30
13796;SHT30;40911;51.552;9.874;2023-12-29T09:50:13;9.75;85.95
13796;SHT30;40911;51.552;9.874;2023-12-29T09:52:37;9.62;86.81
13796;SHT30;40911;51.552;9.874;2023-12-29T09:54:59;9.61;86.90
13796;SHT30;40911;51.552;9.874;2023-12-29T09:57:21;9.58;87.29
13796;SHT30;40911;51.552;9.874;2023-12-29T09:59:43;9.52;88.06
13796;SHT30;40911;51.552;9.874;2023-12-29T10:02:05;9.49;87.86
13796;SHT30;40911;51.552;9.874;2023-12-29T10:04:26;9.40;88.54
13796;SHT30;40911;51.552;9.874;2023-12-29T10:06:49;9.32;89.71
13796;SHT30;40911;51.552;9.874;2023-12-29T10:09:14;9.30;89.61
13796;SHT30;40911;51.552;9.874;2023-12-29T10:11:37;9.14;90.71
13796;SHT30;40911;51.552;9.874;2023-12-29T10:13:59;9.09;91.02
13796;SHT30;40911;51.552;9.874;2023-12-29T10:16:28;9.04;91.23
13796;SHT30;40911;51.552;9.874;2023-12-29T10:19:00;8.88;92.51
13796;SHT30;40911;51.552;9.874;2023-12-29T10:21:27;8.88;92.66
13796;SHT30;40911;51.552;9.874;2023-12-29T10:23:53;8.83;92.36
13796;SHT30;40911;51.552;9.874;2023-12-29T10:26:18;8.82;92.70
13796;SHT30;40911;51.552;9.874;2023-12-29T10:28:40;8.85;92.52
13796;SHT30;40911;51.552;9.874;2023-12-29T10:31:02;8.90;92.44
13796;SHT30;40911;51.552;9.874;2023-12-29T10:33:25;8.88;93.00
13796;SHT30;40911;51.552;9.874;2023-12-29T10:35:56;8.88;92.91
13796;SHT30;40911;51.552;9.874;2023-12-29T10:38:18;8.88;93.48
13796;SHT30;40911;51.552;9.874;2023-12-29T10:40:40;8.90;93.35
13796;SHT30;40911;51.552;9.874;2023-12-29T10:43:04;8.83;93.85
13796;SHT30;40911;51.552;9.874;2023-12-29T10:45:27;8.83;93.68
13796;SHT30;40911;51.552;9.874;2023-12-29T10:47:49;8.83;93.50
13796;SHT30;40911;51.552;9.874;2023-12-29T10:50:11;8.82;93.52
13796;SHT30;40911;51.552;9.874;2023-12-29T10:52:33;8.82;94.01
13796;SHT30;40911;51.552;9.874;2023-12-29T10:55:04;8.83;94.05
13796;SHT30;40911;51.552;9.874;2023-12-29T10:57:26;8.83;93.87
13796;SHT30;40911;51.552;9.874;2023-12-29T10:59:55;8.76;94.65
13796;SHT30;40911;51.552;9.874;2023-12-29T11:02:18;8.77;94.56
13796;SHT30;40911;51.552;9.874;2023-12-29T11:04:39;8.69;94.68
13796;SHT30;40911;51.552;9.874;2023-12-29T11:07:02;8.71;94.82
13796;SHT30;40911;51.552;9.874;2023-12-29T11:09:27;8.69;94.87
13796;SHT30;40911;51.552;9.874;2023-12-29T11:11:50;8.72;95.17
13796;SHT30;40911;51.552;9.874;2023-12-29T11:14:12;8.72;94.98
13796;SHT30;40911;51.552;9.874;2023-12-29T11:16:36;8.75;94.86
13796;SHT30;40911;51.552;9.874;2023-12-29T11:18:58;8.77;94.65
13796;SHT30;40911;51.552;9.874;2023-12-29T11:21:21;8.88;93.65
13796;SHT30;40911;51.552;9.874;2023-12-29T11:23:43;8.76;94.70
13796;SHT30;40911;51.552;9.874;2023-12-29T11:26:05;8.75;94.93
13796;SHT30;40911;51.552;9.874;2023-12-29T11:28:27;8.65;95.48
13796;SHT30;40911;51.552;9.874;2023-12-29T11:30:49;8.65;95.47
13796;SHT30;40911;51.552;9.874;2023-12-29T11:33:15;8.65;95.67
13796;SHT30;40911;51.552;9.874;2023-12-29T11:35:43;8.72;95.49
13796;SHT30;40911;51.552;9.874;2023-12-29T11:38:24;8.76;95.68
13796;SHT30;40911;51.552;9.874;2023-12-29T11:40:52;8.89;95.75
13796;SHT30;40911;51.552;9.874;2023-12-29T11:43:18;8.80;95.83
13796;SHT30;40911;51.552;9.874;2023-12-29T11:45:40;8.80;95.87
13796;SHT30;40911;51.552;9.874;2023-12-29T11:48:01;8.82;95.38
13796;SHT30;40911;51.552;9.874;2023-12-29T11:50:32;8.83;95.70
13796;SHT30;40911;51.552;9.874;2023-12-29T11:52:54;8.77;95.89
13796;SHT30;40911;51.552;9.874;2023-12-29T11:55:16;8.75;95.92
13796;SHT30;40911;51.552;9.874;2023-12-29T11:57:40;8.72;96.19
13796;SHT30;40911;51.552;9.874;2023-12-29T12:00:02;8.65;96.61
13796;SHT30;40911;51.552;9.874;2023-12-29T12:02:27;8.62;96.91
13796;SHT30;40911;51.552;9.874;2023-12-29T12:04:49;8.59;96.97
13796;SHT30;40911;51.552;9.874;2023-12-29T12:07:16;8.56;97.10
13796;SHT30;40911;51.552;9.874;2023-12-29T12:09:38;8.52;96.98
13796;SHT30;40911;51.552;9.874;2023-12-29T12:11:59;8.52;96.96
13796;SHT30;40911;51.552;9.874;2023-12-29T12:14:46;8.49;97.33
13796;SHT30;40911;51.552;9.874;2023-12-29T12:17:09;8.49;97.51
13796;SHT30;40911;51.552;9.874;2023-12-29T12:19:32;8.48;97.59
13796;SHT30;40911;51.552;9.874;2023-12-29T12:21:55;8.48;97.58
13796;SHT30;40911;51.552;9.874;2023-12-29T12:24:19;8.48;97.44
13796;SHT30;40911;51.552;9.874;2023-12-29T12:26:41;8.48;97.12
13796;SHT30;40911;51.552;9.874;2023-12-29T12:29:04;8.45;97.41
13796;SHT30;40911;51.552;9.874;2023-12-29T12:31:25;8.45;97.62
13796;SHT30;40911;51.552;9.874;2023-12-29T12:33:53;8.45;97.99
13796;SHT30;40911;51.552;9.874;2023-12-29T12:36:15;8.44;98.09
13796;SHT30;40911;51.552;9.874;2023-12-29T12:38:36;8.48;98.18
13796;SHT30;40911;51.552;9.874;2023-12-29T12:41:09;8.49;98.06
13796;SHT30;40911;51.552;9.874;2023-12-29T12:43:32;8.58;97.79
13796;SHT30;40911;51.552;9.874;2023-12-29T12:45:59;8.71;97.16
13796;SHT30;40911;51.552;9.874;2023-12-29T12:48:24;8.71;97.05
13796;SHT30;40911;51.552;9.874;2023-12-29T12:50:50;8.80;96.91
13796;SHT30;40911;51.552;9.874;2023-12-29T12:53:12;8.88;96.78
13796;SHT30;40911;51.552;9.874;2023-12-29T12:55:40;8.99;95.75
13796;SHT30;40911;51.552;9.874;2023-12-29T12:58:04;9.04;95.48
13796;SHT30;40911;51.552;9.874;2023-12-29T13:00:25;9.02;95.73
13796;SHT30;40911;51.552;9.874;2023-12-29T13:02:47;9.06;95.55
13796;SHT30;40911;51.552;9.874;2023-12-29T13:05:09;9.06;95.85
13796;SHT30;40911;51.552;9.874;2023-12-29T13:07:31;9.07;95.91
13796;SHT30;40911;51.552;9.874;2023-12-29T13:09:53;9.06;96.18
13796;SHT30;40911;51.552;9.874;2023-12-29T13:12:16;9.09;96.20
13796;SHT30;40911;51.552;9.874;2023-12-29T13:14:40;9.11;95.65
13796;SHT30;40911;51.552;9.874;2023-12-29T13:17:06;9.16;95.53
13796;SHT30;40911;51.552;9.874;2023-12-29T13:19:27;9.06;96.04
13796;SHT30;40911;51.552;9.874;2023-12-29T13:21:50;9.04;96.39
13796;SHT30;40911;51.552;9.874;2023-12-29T13:24:14;9.07;96.43
13796;SHT30;40911;51.552;9.874;2023-12-29T13:26:37;9.07;96.50
13796;SHT30;40911;51.552;9.874;2023-12-29T13:28:59;9.14;96.16
13796;SHT30;40911;51.552;9.874;2023-12-29T13:31:22;9.11;96.29
13796;SHT30;40911;51.552;9.874;2023-12-29T13:33:47;9.11;96.45
13796;SHT30;40911;51.552;9.874;2023-12-29T13:36:22;9.09;96.60
13796;SHT30;40911;51.552;9.874;2023-12-29T13:38:51;9.19;96.18
13796;SHT30;40911;51.552;9.874;2023-12-29T13:41:15;9.35;95.02
13796;SHT30;40911;51.552;9.874;2023-12-29T13:43:39;9.27;95.24
13796;SHT30;40911;51.552;9.874;2023-12-29T13:46:03;9.31;95.27
13796;SHT30;40911;51.552;9.874;2023-12-29T13:48:28;9.34;95.05
13796;SHT30;40911;51.552;9.874;2023-12-29T13:50:50;9.28;95.57
13796;SHT30;40911;51.552;9.874;2023-12-29T13:53:16;9.30;95.14
13796;SHT30;40911;51.552;9.874;2023-12-29T13:55:38;9.44;94.29
13796;SHT30;40911;51.552;9.874;2023-12-29T13:58:00;9.45;94.03
13796;SHT30;40911;51.552;9.874;2023-12-29T14:00:26;9.41;94.30
13796;SHT30;40911;51.552;9.874;2023-12-29T14:02:58;9.40;94.32
13796;SHT30;40911;51.552;9.874;2023-12-29T14:05:31;9.30;94.94
13796;SHT30;40911;51.552;9.874;2023-12-29T14:07:55;9.27;95.11
13796;SHT30;40911;51.552;9.874;2023-12-29T14:10:20;9.20;95.45
13796;SHT30;40911;51.552;9.874;2023-12-29T14:12:42;9.17;95.82
13796;SHT30;40911;51.552;9.874;2023-12-29T14:15:03;9.13;96.08
13796;SHT30;40911;51.552;9.874;2023-12-29T14:17:25;9.09;96.51
13796;SHT30;40911;51.552;9.874;2023-12-29T14:19:48;9.09;96.70
13796;SHT30;40911;51.552;9.874;2023-12-29T14:22:21;9.10;96.63
13796;SHT30;40911;51.552;9.874;2023-12-29T14:24:43;8.99;97.13
13796;SHT30;40911;51.552;9.874;2023-12-29T14:27:05;8.92;97.77
13796;SHT30;40911;51.552;9.874;2023-12-29T14:29:28;8.90;98.03
13796;SHT30;40911;51.552;9.874;2023-12-29T14:31:50;8.89;97.99
13796;SHT30;40911;51.552;9.874;2023-12-29T14:34:13;8.86;97.92
13796;SHT30;40911;51.552;9.874;2023-12-29T14:36:35;8.83;98.19
13796;SHT30;40911;51.552;9.874;2023-12-29T14:38:59;8.82;98.33
13796;SHT30;40911;51.552;9.874;2023-12-29T14:41:21;8.45;96.86
13796;SHT30;40911;51.552;9.874;2023-12-29T14:43:42;8.40;96.29
13796;SHT30;40911;51.552;9.874;2023-12-29T14:46:04;8.20;96.22
13796;SHT30;40911;51.552;9.874;2023-12-29T14:48:26;8.13;95.13
13796;SHT30;40911;51.552;9.874;2023-12-29T14:50:47;8.20;94.12
13796;SHT30;40911;51.552;9.874;2023-12-29T14:53:10;8.18;94.80
13796;SHT30;40911;51.552;9.874;2023-12-29T14:55:33;8.30;94.62
13796;SHT30;40911;51.552;9.874;2023-12-29T14:57:55;8.31;95.37
13796;SHT30;40911;51.552;9.874;2023-12-29T15:00:17;8.34;95.51
13796;SHT30;40911;51.552;9.874;2023-12-29T15:02:38;8.34;96.00
13796;SHT30;40911;51.552;9.874;2023-12-29T15:05:02;8.34;96.48
13796;SHT30;40911;51.552;9.874;2023-12-29T15:07:24;8.35;96.94
13796;SHT30;40911;51.552;9.874;2023-12-29T15:09:50;8.40;97.25
13796;SHT30;40911;51.552;9.874;2023-12-29T15:12:13;8.52;97.34
13796;SHT30;40911;51.552;9.874;2023-12-29T15:14:35;8.49;97.76